Time;durP1;ratioP1;P1;durP2;ratioP2;P2;SDS_P1;SDS_P2;PMS_P1;PMS_P2;Temp;Humidity;BMP_temperature;BMP_pressure;BME280_temperature;BME280_humidity;BME280_pressure;Samples;Min_cycle;Max_cycle;Signal;HPM_P1;HPM_P2
2022/02/15 00:02:20;;;;;;;297.82;143.87;;;;;;;-2.21;68.00;94645.52;1531746;92;22276;-46
2022/02/15 00:04:47;;;;;;;287.98;134.07;;;;;;;-2.11;68.72;94648.31;1541323;93;22025;-48
2022/02/15 00:07:13;;;;;;;289.05;134.65;;;;;;;-1.95;68.14;94631.94;1509268;92;21144;-48
2022/02/15 00:09:40;;;;;;;307.65;138.47;;;;;;;-2.00;67.48;94638.44;1546585;91;21135;-48
2022/02/15 00:12:09;;;;;;;291.42;129.87;;;;;;;-2.07;67.66;94634.89;1553263;91;21641;-46
2022/02/15 00:14:35;;;;;;;312.10;142.35;;;;;;;-2.14;67.36;94630.20;1552242;91;21532;-47
2022/02/15 00:17:03;;;;;;;309.87;140.28;;;;;;;-2.17;67.96;94641.72;1554097;91;21204;-47
2022/02/15 00:19:30;;;;;;;344.93;154.95;;;;;;;-2.08;67.87;94633.34;1551185;92;21111;-48
2022/02/15 00:21:57;;;;;;;317.05;139.43;;;;;;;-1.96;67.84;94633.84;1552212;92;20992;-47
2022/02/15 00:24:23;;;;;;;319.13;146.50;;;;;;;-1.88;67.49;94636.83;1552935;91;21088;-47
2022/02/15 00:26:50;;;;;;;283.13;131.07;;;;;;;-1.83;67.41;94635.13;1536384;92;21193;-46
2022/02/15 00:29:16;;;;;;;290.02;133.65;;;;;;;-1.83;66.91;94627.05;1551399;92;21978;-47
2022/02/15 00:31:43;;;;;;;283.23;125.12;;;;;;;-1.87;66.85;94626.80;1536224;92;21023;-47
2022/02/15 00:34:11;;;;;;;270.88;128.25;;;;;;;-1.99;66.31;94623.81;1552280;92;21551;-46
2022/02/15 00:36:38;;;;;;;269.48;124.62;;;;;;;-2.16;66.56;94626.34;1554068;90;21115;-46
2022/02/15 00:39:05;;;;;;;296.70;135.25;;;;;;;-2.26;66.58;94623.75;1552306;91;21220;-47
2022/02/15 00:41:32;;;;;;;267.45;127.05;;;;;;;-2.36;67.04;94620.94;1554511;91;21984;-47
2022/02/15 00:43:59;;;;;;;288.48;130.60;;;;;;;-2.29;67.18;94624.45;1552456;92;21096;-48
2022/02/15 00:46:25;;;;;;;325.60;146.22;;;;;;;-2.23;66.95;94623.56;1552890;91;21124;-47
2022/02/15 00:48:54;;;;;;;323.38;142.77;;;;;;;-2.21;67.22;94624.75;1552736;92;21106;-47
2022/02/15 00:51:20;;;;;;;273.48;123.07;;;;;;;-2.14;67.30;94628.85;1551494;91;21590;-46
2022/02/15 00:53:47;;;;;;;311.10;136.55;;;;;;;-2.06;67.17;94621.06;1536337;92;21246;-46
2022/02/15 00:56:14;;;;;;;309.18;134.95;;;;;;;-2.11;66.75;94621.38;1553682;91;20967;-47
2022/02/15 00:58:41;;;;;;;318.57;136.72;;;;;;;-2.19;66.82;94615.73;1551616;91;21096;-47
2022/02/15 01:01:07;;;;;;;264.23;109.80;;;;;;;-2.17;67.00;94620.17;1553301;91;21520;-47
2022/02/15 01:03:34;;;;;;;300.13;126.22;;;;;;;-2.15;66.82;94619.23;1528359;92;21028;-46
2022/02/15 01:06:02;;;;;;;309.55;136.85;;;;;;;-2.29;66.57;94619.07;1540723;93;21170;-47
2022/02/15 01:08:29;;;;;;;316.20;137.05;;;;;;;-2.47;66.71;94615.41;1539212;92;21462;-46
2022/02/15 01:10:55;;;;;;;303.62;135.15;;;;;;;-2.57;67.08;94617.42;1515890;92;20978;-46
2022/02/15 01:13:24;;;;;;;320.48;142.00;;;;;;;-2.59;67.20;94617.02;1554052;91;20992;-46
2022/02/15 01:15:51;;;;;;;308.85;135.50;;;;;;;-2.59;67.30;94612.98;1534854;92;20985;-46
2022/02/15 01:18:18;;;;;;;302.40;133.57;;;;;;;-2.54;67.45;94613.23;1535138;91;21188;-46
2022/02/15 01:20:46;;;;;;;278.75;126.38;;;;;;;-2.51;67.13;94606.53;1555705;91;21095;-47
2022/02/15 01:23:13;;;;;;;290.60;135.05;;;;;;;-2.56;67.17;94608.20;1551618;92;21563;-47
2022/02/15 01:25:40;;;;;;;256.95;115.45;;;;;;;-2.53;67.24;94604.77;1536932;92;21011;-47
2022/02/15 01:28:07;;;;;;;252.85;116.05;;;;;;;-2.50;67.05;94605.37;1536802;92;21435;-47
2022/02/15 01:30:36;;;;;;;269.60;118.42;;;;;;;-2.62;66.90;94602.95;1553069;91;22169;-47
2022/02/15 01:33:03;;;;;;;287.72;125.58;;;;;;;-2.75;67.12;94600.30;1551222;91;21068;-47
2022/02/15 01:35:31;;;;;;;298.55;133.12;;;;;;;-2.75;67.60;94602.98;1552836;92;20999;-47
2022/02/15 01:37:58;;;;;;;316.25;137.70;;;;;;;-2.71;67.38;94601.10;1552595;92;21447;-45
2022/02/15 01:40:25;;;;;;;373.65;155.32;;;;;;;-2.73;67.22;94595.91;1553265;91;21370;-46
2022/02/15 01:42:52;;;;;;;390.38;163.80;;;;;;;-2.74;67.89;94592.42;1552393;92;21266;-47
2022/02/15 01:45:20;;;;;;;418.80;181.60;;;;;;;-2.57;67.81;94587.81;1552244;91;21227;-47
2022/02/15 01:47:47;;;;;;;421.35;175.70;;;;;;;-2.42;67.41;94584.13;1537653;91;21632;-46
2022/02/15 01:50:14;;;;;;;419.13;174.77;;;;;;;-2.31;66.87;94587.70;1552674;90;21064;-47
2022/02/15 01:52:42;;;;;;;411.58;169.22;;;;;;;-2.21;67.04;94591.08;1553999;92;21009;-47
2022/02/15 01:55:12;;;;;;;410.37;172.93;;;;;;;-2.07;66.63;94595.27;1518775;92;21246;-47
2022/02/15 01:57:40;;;;;;;416.23;170.50;;;;;;;-1.92;66.04;94586.73;1552231;92;21063;-47
2022/02/15 02:00:14;;;;;;;410.80;177.82;;;;;;;-1.94;65.40;94583.05;1553620;92;21149;-47
2022/02/15 02:02:46;;;;;;;382.43;159.70;;;;;;;-2.03;65.58;94581.24;1548831;91;21100;-48
2022/02/15 02:08:02;;;;;;;364.57;145.72;;;;;;;-2.20;65.02;94572.98;1541260;92;22403;-47
2022/02/15 02:10:32;;;;;;;359.67;151.27;;;;;;;-2.50;65.32;94577.11;1540653;91;21041;-47
2022/02/15 02:13:00;;;;;;;261.30;114.05;;;;;;;-2.65;65.84;94584.82;1541122;92;21053;-47
2022/02/15 02:15:27;;;;;;;253.58;110.48;;;;;;;-2.67;65.86;94585.77;1539615;91;21041;-46
2022/02/15 02:18:11;;;;;;;234.30;107.85;;;;;;;-2.83;65.65;94580.39;1493588;95;21150;-46
2022/02/15 02:20:39;;;;;;;254.35;118.05;;;;;;;-3.01;65.95;94577.49;1511891;93;21214;-46
2022/02/15 02:23:15;;;;;;;261.37;115.82;;;;;;;-3.08;66.41;94572.59;1539732;92;21620;-47
2022/02/15 02:25:43;;;;;;;275.10;123.35;;;;;;;-3.14;66.64;94580.20;1540153;92;21633;-46
2022/02/15 02:28:11;;;;;;;301.10;132.57;;;;;;;-3.17;67.39;94582.28;1531272;91;21128;-47
2022/02/15 02:30:38;;;;;;;284.75;124.85;;;;;;;-3.07;67.85;94578.94;1543603;92;21096;-46
2022/02/15 02:33:05;;;;;;;288.78;126.90;;;;;;;-2.97;67.79;94574.83;1539677;92;21207;-47
2022/02/15 02:35:32;;;;;;;272.42;120.67;;;;;;;-2.98;67.33;94585.39;1542429;91;21587;-47
2022/02/15 02:37:59;;;;;;;277.40;123.20;;;;;;;-3.09;67.24;94586.59;1539575;92;21092;-47
2022/02/15 02:40:26;;;;;;;234.65;107.12;;;;;;;-3.19;67.10;94578.39;1539638;92;21073;-46
2022/02/15 02:42:52;;;;;;;259.48;121.15;;;;;;;-3.24;67.29;94574.69;1539304;92;21549;-46
2022/02/15 02:45:21;;;;;;;240.47;106.75;;;;;;;-3.29;67.67;94578.45;1529985;92;21975;-46
2022/02/15 02:47:52;;;;;;;277.13;125.97;;;;;;;-3.24;67.81;94580.06;1541024;92;21703;-47
2022/02/15 02:50:21;;;;;;;221.70;104.03;;;;;;;-3.28;67.54;94588.66;1539480;92;21192;-47
2022/02/15 02:52:48;;;;;;;263.00;120.45;;;;;;;-3.28;67.80;94580.59;1527445;92;21643;-46
2022/02/15 02:55:16;;;;;;;242.90;111.08;;;;;;;-3.24;67.70;94578.12;1552249;91;21119;-46
2022/02/15 02:57:43;;;;;;;213.22;101.75;;;;;;;-3.21;67.32;94580.67;1553489;90;21217;-47
2022/02/15 03:00:14;;;;;;;235.63;106.35;;;;;;;-3.24;67.21;94574.69;1554669;91;21183;-48
2022/02/15 03:02:57;;;;;;;227.70;104.78;;;;;;;-3.28;67.20;94584.63;1552744;90;21035;-46
2022/02/15 03:05:24;;;;;;;195.53;91.95;;;;;;;-3.24;67.28;94588.89;1538206;92;21015;-48
2022/02/15 03:07:52;;;;;;;174.85;83.45;;;;;;;-3.31;67.27;94583.98;1537402;92;21030;-48
2022/02/15 03:10:19;;;;;;;216.57;101.53;;;;;;;-3.40;67.16;94589.63;1535052;92;21180;-48
2022/02/15 03:12:46;;;;;;;201.10;95.47;;;;;;;-3.53;67.42;94581.37;1552195;91;21077;-46
2022/02/15 03:15:13;;;;;;;191.60;89.47;;;;;;;-3.57;67.89;94588.59;1535477;92;21242;-47
2022/02/15 03:17:40;;;;;;;220.10;101.15;;;;;;;-3.48;68.01;94585.30;1556797;91;21084;-47
2022/02/15 03:20:09;;;;;;;235.43;105.17;;;;;;;-3.43;67.72;94585.56;1552447;91;21250;-47
2022/02/15 03:22:36;;;;;;;230.20;104.20;;;;;;;-3.46;67.93;94590.33;1553604;91;21169;-48
2022/02/15 03:25:05;;;;;;;221.80;107.45;;;;;;;-3.35;68.05;94583.95;1549898;91;21651;-47
2022/02/15 03:27:33;;;;;;;230.75;110.97;;;;;;;-3.23;67.89;94579.68;1553952;91;21083;-47
2022/02/15 03:30:01;;;;;;;220.40;105.20;;;;;;;-3.11;67.46;94576.78;1551236;91;21059;-47
2022/02/15 03:32:29;;;;;;;229.63;108.05;;;;;;;-3.07;67.12;94580.28;1552372;90;21016;-47
2022/02/15 03:34:56;;;;;;;231.13;104.53;;;;;;;-3.00;67.46;94583.63;1551286;92;21962;-46
2022/02/15 03:37:22;;;;;;;211.40;99.07;;;;;;;-2.79;67.32;94583.33;1534800;92;21219;-46
2022/02/15 03:39:51;;;;;;;227.87;100.92;;;;;;;-2.64;66.85;94589.09;1536341;92;21098;-46
2022/02/15 03:45:05;;;;;;;225.93;94.97;;;;;;;-2.53;65.54;94598.05;1551585;92;21632;-46
2022/02/15 03:47:42;;;;;;;219.37;100.58;;;;;;;-2.67;65.32;94595.19;1552506;91;21492;-48
2022/02/15 03:50:10;;;;;;;214.97;98.75;;;;;;;-2.87;65.29;94594.38;1552348;91;21451;-48
2022/02/15 03:52:37;;;;;;;220.80;99.40;;;;;;;-3.00;65.61;94603.26;1554106;92;21085;-46
2022/02/15 03:55:06;;;;;;;206.05;92.30;;;;;;;-2.97;65.79;94605.77;1552842;91;21048;-46
2022/02/15 03:57:36;;;;;;;200.38;90.70;;;;;;;-2.88;65.83;94593.59;1553222;91;21072;-47
2022/02/15 04:00:06;;;;;;;217.22;99.67;;;;;;;-2.96;65.33;94604.07;1553637;91;21227;-46
2022/02/15 04:02:35;;;;;;;244.82;107.87;;;;;;;-3.12;65.40;94604.81;1555629;92;21152;-47
2022/02/15 04:05:02;;;;;;;222.85;102.40;;;;;;;-3.27;65.46;94609.80;1549617;91;21184;-47
2022/02/15 04:07:29;;;;;;;197.35;88.78;;;;;;;-3.40;65.87;94609.79;1539505;92;21093;-47
2022/02/15 04:09:56;;;;;;;210.57;100.30;;;;;;;-3.49;65.89;94605.25;1552731;91;21129;-47
2022/02/15 04:12:22;;;;;;;202.43;98.37;;;;;;;-3.59;66.28;94606.99;1549912;92;21166;-47
2022/02/15 04:14:49;;;;;;;199.77;96.78;;;;;;;-3.60;66.33;94608.13;1539813;92;21719;-46
2022/02/15 04:17:17;;;;;;;205.65;98.33;;;;;;;-3.61;66.77;94605.23;1539121;92;21037;-47
2022/02/15 04:19:44;;;;;;;198.75;97.97;;;;;;;-3.49;67.05;94609.28;1540163;91;21057;-46
2022/02/15 04:22:11;;;;;;;197.57;96.25;;;;;;;-3.35;67.32;94609.50;1539201;92;21036;-46
2022/02/15 04:24:39;;;;;;;199.20;94.97;;;;;;;-3.15;66.88;94602.86;1552400;92;21423;-46
2022/02/15 04:27:07;;;;;;;186.40;93.85;;;;;;;-2.98;66.37;94603.66;1552111;92;21663;-47
2022/02/15 04:29:34;;;;;;;201.25;94.22;;;;;;;-2.89;66.37;94597.42;1551295;91;21642;-47
2022/02/15 04:32:00;;;;;;;307.73;128.07;;;;;;;-2.77;65.97;94603.92;1536963;91;21096;-47
2022/02/15 04:34:29;;;;;;;227.60;104.60;;;;;;;-2.66;65.58;94606.16;1541518;92;21314;-48
2022/02/15 04:36:56;;;;;;;217.85;100.65;;;;;;;-2.64;64.87;94613.32;1539654;92;21199;-46
2022/02/15 04:39:24;;;;;;;197.55;95.85;;;;;;;-2.72;64.55;94607.63;1543307;90;21517;-47
2022/02/15 04:41:52;;;;;;;222.90;102.78;;;;;;;-2.93;64.38;94607.38;1551255;91;21068;-46
2022/02/15 04:44:21;;;;;;;176.10;84.07;;;;;;;-3.07;64.71;94609.88;1529933;92;21567;-47
2022/02/15 04:46:48;;;;;;;203.42;97.35;;;;;;;-3.21;64.46;94611.02;1539606;92;21089;-47
2022/02/15 04:49:15;;;;;;;196.43;94.90;;;;;;;-3.42;64.76;94605.93;1528606;92;21253;-47
2022/02/15 04:51:43;;;;;;;174.20;87.78;;;;;;;-3.50;65.29;94603.70;1539087;91;21128;-47
2022/02/15 04:54:11;;;;;;;178.15;86.32;;;;;;;-3.48;65.63;94608.70;1545629;91;21147;-46
2022/02/15 04:56:39;;;;;;;158.42;76.35;;;;;;;-3.48;65.70;94610.05;1544125;91;21647;-47
2022/02/15 04:59:05;;;;;;;185.45;89.60;;;;;;;-3.57;65.56;94614.33;1539668;91;21081;-47
2022/02/15 05:01:34;;;;;;;194.62;95.45;;;;;;;-3.77;65.58;94615.34;1549295;92;21806;-46
2022/02/15 05:04:03;;;;;;;188.55;90.60;;;;;;;-3.99;65.76;94616.14;1551262;92;21023;-46
2022/02/15 05:06:30;;;;;;;191.00;91.70;;;;;;;-4.04;66.19;94610.50;1552359;92;21019;-47
2022/02/15 05:08:58;;;;;;;190.73;92.47;;;;;;;-4.13;66.15;94609.19;1552946;91;21040;-48
2022/02/15 05:11:25;;;;;;;182.55;90.12;;;;;;;-4.18;66.78;94606.80;1554106;92;21481;-46
2022/02/15 05:13:54;;;;;;;179.03;90.38;;;;;;;-4.06;67.17;94609.32;1554163;90;21242;-47
2022/02/15 05:16:22;;;;;;;243.05;118.05;;;;;;;-3.96;67.12;94610.05;1555128;91;21630;-47
2022/02/15 05:18:54;;;;;;;344.62;175.45;;;;;;;-3.86;67.24;94602.16;1554271;91;21627;-46
2022/02/15 05:21:22;;;;;;;314.60;149.95;;;;;;;-3.73;67.41;94606.22;1551421;92;21031;-46
2022/02/15 05:23:51;;;;;;;264.25;133.20;;;;;;;-3.57;67.20;94602.82;1530448;92;21096;-47
2022/02/15 05:26:18;;;;;;;245.02;121.50;;;;;;;-3.48;66.90;94604.67;1542059;91;21190;-45
2022/02/15 05:28:48;;;;;;;247.25;120.80;;;;;;;-3.42;66.66;94617.45;1545876;91;21511;-47
2022/02/15 05:31:15;;;;;;;244.75;112.37;;;;;;;-3.46;66.20;94616.62;1555072;91;21138;-46
2022/02/15 05:33:44;;;;;;;205.98;101.85;;;;;;;-3.52;66.29;94613.84;1534872;92;21112;-47
2022/02/15 05:36:12;;;;;;;208.80;94.90;;;;;;;-3.55;66.06;94621.28;1552284;91;21173;-48
2022/02/15 05:38:41;;;;;;;222.50;109.67;;;;;;;-3.62;66.15;94625.19;1528278;92;22012;-49
2022/02/15 05:41:08;;;;;;;187.70;96.20;;;;;;;-3.65;66.05;94625.92;1539519;92;21088;-50
2022/02/15 05:43:36;;;;;;;186.15;97.20;;;;;;;-3.64;66.32;94626.13;1542718;92;21043;-52
2022/02/15 05:46:04;;;;;;;178.93;94.70;;;;;;;-3.60;65.87;94622.91;1551342;92;21092;-47
2022/02/15 05:48:37;;;;;;;163.97;85.42;;;;;;;-3.70;65.56;94624.89;1530641;91;21125;-47
2022/02/15 05:51:06;;;;;;;188.60;92.42;;;;;;;-3.83;65.62;94623.52;1556873;90;21206;-47
2022/02/15 05:53:35;;;;;;;153.35;82.88;;;;;;;-3.91;65.58;94623.20;1552187;91;21503;-47
2022/02/15 05:56:03;;;;;;;170.43;84.58;;;;;;;-4.01;65.77;94630.50;1552619;92;21052;-47
2022/02/15 05:58:36;;;;;;;149.27;78.67;;;;;;;-4.05;66.04;94631.02;1539760;92;21580;-45
2022/02/15 06:01:04;;;;;;;136.10;74.07;;;;;;;-4.02;66.34;94625.69;1536859;92;21555;-47
2022/02/15 06:06:20;;;;;;;138.70;74.65;;;;;;;-3.94;66.39;94634.64;1551539;91;21261;-47
2022/02/15 06:08:47;;;;;;;155.75;82.10;;;;;;;-3.85;66.65;94631.92;1552470;92;21113;-47
2022/02/15 06:11:15;;;;;;;175.50;87.15;;;;;;;-3.82;66.53;94635.81;1536760;91;21881;-48
2022/02/15 06:13:43;;;;;;;321.43;145.00;;;;;;;-3.88;66.71;94640.70;1544264;90;21537;-48
2022/02/15 06:16:12;;;;;;;229.80;112.75;;;;;;;-3.87;67.30;94632.09;1536874;90;21222;-49
2022/02/15 06:18:55;;;;;;;179.03;90.87;;;;;;;-3.67;67.61;94633.56;1542605;90;21537;-49
2022/02/15 06:21:24;;;;;;;145.28;77.25;;;;;;;-3.43;67.39;94630.68;1553687;91;21116;-49
2022/02/15 06:23:52;;;;;;;140.03;71.42;;;;;;;-3.23;66.99;94642.13;1537044;90;21049;-50
2022/02/15 06:26:19;;;;;;;127.65;67.75;;;;;;;-3.13;66.89;94634.20;1540903;91;21045;-50
2022/02/15 06:29:04;;;;;;;136.95;70.50;;;;;;;-2.97;66.97;94637.50;1537330;90;21200;-49
2022/02/15 06:31:33;;;;;;;139.70;73.78;;;;;;;-2.84;66.83;94634.00;1545495;90;21061;-47
2022/02/15 06:34:01;;;;;;;187.70;91.82;;;;;;;-2.76;66.68;94622.17;1545176;90;21065;-48
2022/02/15 06:36:28;;;;;;;206.02;101.82;;;;;;;-2.64;66.27;94622.74;1542584;90;21054;-49
2022/02/15 06:38:58;;;;;;;180.67;89.30;;;;;;;-2.68;66.11;94623.83;1541153;91;21009;-48
2022/02/15 06:41:25;;;;;;;149.55;79.22;;;;;;;-2.75;66.20;94620.48;1542562;90;21355;-49
2022/02/15 06:43:56;;;;;;;119.53;63.30;;;;;;;-2.86;66.24;94627.63;1544943;90;21146;-48
2022/02/15 06:46:25;;;;;;;87.67;51.70;;;;;;;-2.81;66.71;94628.68;1551363;90;21072;-48
2022/02/15 06:48:53;;;;;;;102.05;60.25;;;;;;;-2.69;66.53;94623.05;1546219;91;21497;-48
2022/02/15 06:51:20;;;;;;;108.47;62.27;;;;;;;-2.58;66.51;94623.16;1538449;90;21159;-47
2022/02/15 06:53:52;;;;;;;108.80;63.35;;;;;;;-2.48;66.48;94611.75;1546212;90;21857;-49
2022/02/15 06:56:33;;;;;;;109.90;61.15;;;;;;;-2.32;66.24;94617.70;1540592;90;21022;-49
2022/02/15 06:59:02;;;;;;;252.43;106.27;;;;;;;-2.21;66.17;94619.37;1543115;90;21077;-51
2022/02/15 07:01:32;;;;;;;193.13;88.22;;;;;;;-2.15;66.28;94609.80;1522707;91;21065;-49
2022/02/15 07:04:01;;;;;;;121.67;59.80;;;;;;;-2.01;66.36;94603.20;1528553;90;21238;-51
2022/02/15 07:06:28;;;;;;;111.20;62.38;;;;;;;-1.82;66.00;94604.89;1528280;91;21874;-50
2022/02/15 07:08:56;;;;;;;116.42;63.23;;;;;;;-1.73;65.89;94600.77;1533770;91;21033;-50
2022/02/15 07:11:23;;;;;;;111.95;60.73;;;;;;;-1.64;65.71;94602.56;1518439;92;22463;-47
2022/02/15 07:13:52;;;;;;;115.52;63.38;;;;;;;-1.54;65.56;94604.58;1534527;92;21056;-47
2022/02/15 07:16:19;;;;;;;92.02;52.25;;;;;;;-1.47;65.86;94591.13;1513513;92;21050;-48
2022/02/15 07:18:48;;;;;;;114.12;62.33;;;;;;;-1.37;65.74;94589.07;1518144;92;21227;-50
2022/02/15 07:21:17;;;;;;;102.05;58.73;;;;;;;-1.33;65.95;94589.89;1525050;91;21124;-48
2022/02/15 07:24:03;;;;;;;95.05;52.80;;;;;;;-1.14;65.87;94583.63;1537402;91;21172;-50
2022/02/15 07:26:49;;;;;;;82.82;49.73;;;;;;;-1.04;65.55;94590.24;1542540;90;21004;-48
2022/02/15 07:29:28;;;;;;;107.15;58.63;;;;;;;-1.01;65.28;94587.58;1530971;91;21165;-51
2022/02/15 07:31:59;;;;;;;159.00;82.72;;;;;;;-1.09;65.42;94590.05;1530990;91;22363;-49
2022/02/15 07:34:26;;;;;;;180.85;92.82;;;;;;;-1.09;65.68;94587.91;1529828;92;21115;-51
2022/02/15 07:36:52;;;;;;;139.68;73.35;;;;;;;-1.02;65.74;94583.89;1556314;89;21080;-47
2022/02/15 07:39:23;;;;;;;151.22;76.90;;;;;;;-0.86;65.83;94576.27;1501946;93;21119;-51
2022/02/15 07:41:52;;;;;;;123.45;60.40;;;;;;;-0.68;65.76;94575.77;1530318;91;21111;-50
2022/02/15 07:44:20;;;;;;;117.40;62.20;;;;;;;-0.37;65.44;94571.05;1518067;92;21347;-49
2022/02/15 07:46:48;;;;;;;111.17;53.00;;;;;;;-0.22;64.91;94572.05;1534383;91;21325;-49
2022/02/15 07:49:15;;;;;;;96.80;51.23;;;;;;;-0.10;64.48;94561.45;1541220;91;21082;-54
2022/02/15 07:51:42;;;;;;;80.00;41.85;;;;;;;-0.03;64.45;94562.83;1529096;92;21128;-50
2022/02/15 07:54:09;;;;;;;92.42;50.78;;;;;;;0.16;64.18;94568.63;1528140;90;21218;-51
2022/02/15 07:56:36;;;;;;;82.60;47.75;;;;;;;0.31;64.09;94568.83;1525116;92;21831;-51
2022/02/15 07:59:06;;;;;;;63.35;35.35;;;;;;;0.45;63.78;94566.89;1523854;91;21167;-52
2022/02/15 08:01:33;;;;;;;52.10;29.60;;;;;;;0.60;63.25;94568.44;1528349;92;21596;-50
2022/02/15 08:04:00;;;;;;;63.17;37.50;;;;;;;0.62;63.02;94571.52;1516709;92;21088;-55
2022/02/15 08:06:29;;;;;;;71.12;37.53;;;;;;;0.64;62.88;94571.94;1523994;91;21015;-52
2022/02/15 08:08:57;;;;;;;48.23;27.67;;;;;;;0.67;62.97;94563.60;1538456;91;21139;-55
2022/02/15 08:11:26;;;;;;;51.25;30.15;;;;;;;0.69;63.01;94562.62;1543429;91;21151;-53
2022/02/15 08:13:54;;;;;;;61.60;32.67;;;;;;;0.79;63.32;94553.73;1542029;90;21224;-47
2022/02/15 08:16:22;;;;;;;57.03;32.95;;;;;;;0.91;63.19;94559.50;1542445;91;21032;-50
2022/02/15 08:18:49;;;;;;;120.85;52.73;;;;;;;1.11;62.93;94552.48;1523787;91;21634;-47
2022/02/15 08:21:16;;;;;;;110.15;52.98;;;;;;;1.36;62.59;94550.45;1539401;90;21498;-46
2022/02/15 08:23:42;;;;;;;140.10;61.15;;;;;;;1.55;62.28;94553.30;1552431;90;21078;-47
2022/02/15 08:26:09;;;;;;;111.47;55.88;;;;;;;1.66;62.11;94548.00;1532295;92;21156;-46
2022/02/15 08:28:41;;;;;;;131.82;64.72;;;;;;;1.91;61.72;94552.70;1539360;91;21153;-49
2022/02/15 08:31:07;;;;;;;117.77;59.73;;;;;;;2.09;61.35;94549.29;1542172;91;21741;-48
2022/02/15 08:33:34;;;;;;;120.60;57.20;;;;;;;2.30;60.79;94538.31;1540501;91;21138;-49
2022/02/15 08:36:01;;;;;;;106.50;53.52;;;;;;;2.45;60.47;94528.86;1500772;92;21212;-49
2022/02/15 08:38:31;;;;;;;102.12;52.73;;;;;;;2.54;60.04;94534.02;1520100;90;21600;-47
2022/02/15 08:40:57;;;;;;;101.95;53.15;;;;;;;2.68;60.20;94529.06;1528946;91;21115;-47
2022/02/15 08:43:25;;;;;;;83.75;45.38;;;;;;;2.94;59.61;94533.84;1500245;92;21133;-47
2022/02/15 08:45:52;;;;;;;80.80;45.70;;;;;;;3.10;58.94;94540.86;1533385;92;21226;-49
2022/02/15 08:48:19;;;;;;;71.97;42.33;;;;;;;3.11;58.66;94538.33;1525038;92;21120;-51
2022/02/15 08:50:45;;;;;;;76.85;43.28;;;;;;;3.09;58.49;94529.20;1530710;92;21222;-51
2022/02/15 08:53:13;;;;;;;44.90;27.60;;;;;;;3.20;58.95;94524.44;1526355;90;21056;-47
2022/02/15 08:55:40;;;;;;;49.63;30.37;;;;;;;3.43;57.81;94512.31;1522620;92;21143;-48
2022/02/15 08:58:07;;;;;;;50.95;30.25;;;;;;;3.58;57.41;94523.98;1540420;90;21250;-48
2022/02/15 09:00:35;;;;;;;60.10;40.55;;;;;;;3.81;57.26;94511.83;1535710;90;21170;-49
2022/02/15 09:03:03;;;;;;;52.58;30.68;;;;;;;4.03;56.71;94513.06;1522764;91;21132;-56
2022/02/15 09:05:30;;;;;;;37.90;21.70;;;;;;;4.23;56.22;94504.39;1541540;91;21088;-53
2022/02/15 09:07:58;;;;;;;48.10;25.32;;;;;;;4.31;55.63;94499.04;1532785;91;21376;-53
2022/02/15 09:10:26;;;;;;;44.27;25.25;;;;;;;4.50;55.79;94501.06;1543861;90;21360;-48
2022/02/15 09:12:53;;;;;;;49.45;28.62;;;;;;;4.76;56.05;94508.39;1538306;91;21235;-51
2022/02/15 09:15:21;;;;;;;55.15;29.23;;;;;;;5.02;55.77;94506.19;1518433;91;21107;-51
2022/02/15 09:17:48;;;;;;;36.40;20.48;;;;;;;5.19;54.86;94511.13;1549471;90;21143;-49
2022/02/15 09:20:15;;;;;;;28.15;17.20;;;;;;;5.25;53.77;94517.05;1522607;92;21267;-47
2022/02/15 09:22:42;;;;;;;18.82;13.25;;;;;;;5.36;53.41;94506.11;1532736;91;21151;-48
2022/02/15 09:25:10;;;;;;;15.93;10.88;;;;;;;5.53;52.93;94498.75;1536373;90;21170;-53
2022/02/15 09:27:37;;;;;;;15.00;11.43;;;;;;;5.75;52.65;94491.69;1512769;92;21138;-49
2022/02/15 09:30:05;;;;;;;14.60;10.35;;;;;;;6.10;52.26;94486.81;1531222;91;21053;-50
2022/02/15 09:32:32;;;;;;;34.03;20.85;;;;;;;6.52;51.13;94491.31;1513591;92;21084;-50
2022/02/15 09:34:59;;;;;;;45.80;23.55;;;;;;;6.72;50.59;94486.52;1532181;90;21160;-50
2022/02/15 09:37:26;;;;;;;43.95;23.77;;;;;;;6.77;50.46;94481.89;1531658;92;22330;-49
2022/02/15 09:39:55;;;;;;;46.08;25.32;;;;;;;6.87;50.43;94478.13;1521876;92;21221;-49
2022/02/15 09:42:23;;;;;;;38.60;21.20;;;;;;;7.04;49.75;94475.55;1543621;91;21168;-47
2022/02/15 09:44:50;;;;;;;34.50;21.10;;;;;;;7.27;49.37;94471.95;1525978;92;21402;-47
2022/02/15 09:47:24;;;;;;;37.65;22.73;;;;;;;7.39;48.75;94476.13;1517175;92;21210;-53
2022/02/15 09:49:52;;;;;;;34.53;22.30;;;;;;;7.49;48.51;94470.19;1515370;92;21302;-49
2022/02/15 09:52:24;;;;;;;39.53;25.65;;;;;;;7.63;47.98;94471.91;1534035;90;21591;-51
2022/02/15 09:54:52;;;;;;;38.88;23.75;;;;;;;7.89;47.97;94464.52;1519765;90;21525;-47
2022/02/15 09:57:20;;;;;;;34.78;22.37;;;;;;;8.23;47.51;94453.10;1521244;92;21128;-47
2022/02/15 09:59:47;;;;;;;32.98;22.13;;;;;;;8.46;47.05;94450.01;1526385;92;21168;-48
2022/02/15 10:02:20;;;;;;;39.10;23.98;;;;;;;8.71;46.23;94432.76;1527348;90;21635;-47
2022/02/15 10:04:52;;;;;;;36.30;22.98;;;;;;;8.85;46.22;94430.33;1504609;92;21290;-48
2022/02/15 10:07:19;;;;;;;49.63;30.95;;;;;;;9.00;45.83;94412.92;1523847;92;21746;-47
2022/02/15 10:09:50;;;;;;;42.65;29.15;;;;;;;9.29;45.80;94407.20;1533601;92;21155;-46
2022/02/15 10:12:19;;;;;;;36.93;24.67;;;;;;;9.64;45.65;94412.78;1535811;91;21175;-46
2022/02/15 10:14:50;;;;;;;22.35;16.82;;;;;;;10.04;44.69;94415.78;1503241;92;21127;-49
2022/02/15 10:17:19;;;;;;;16.37;12.68;;;;;;;10.51;44.04;94417.62;1533426;91;21100;-48
2022/02/15 10:19:49;;;;;;;15.38;12.75;;;;;;;10.97;43.37;94420.63;1517709;92;38009;-46
2022/02/15 10:22:19;;;;;;;16.95;13.45;;;;;;;11.43;42.43;94414.67;1533123;91;21542;-48
2022/02/15 10:24:52;;;;;;;15.30;11.73;;;;;;;12.00;41.48;94411.53;1530196;91;21178;-48
2022/02/15 10:27:21;;;;;;;20.08;13.62;;;;;;;12.67;39.70;94405.72;1539463;91;21588;-48
2022/02/15 10:29:48;;;;;;;19.85;13.50;;;;;;;13.20;38.48;94401.11;1515490;90;21124;-51
2022/02/15 10:32:22;;;;;;;17.50;12.00;;;;;;;13.76;38.54;94405.08;1521024;90;21134;-53
2022/02/15 10:34:53;;;;;;;16.37;12.80;;;;;;;14.13;36.60;94409.00;1503700;92;21180;-53
2022/02/15 10:37:20;;;;;;;17.42;13.43;;;;;;;14.02;35.69;94406.06;1550645;90;21168;-53
2022/02/15 10:39:52;;;;;;;29.82;20.08;;;;;;;13.68;36.22;94407.48;1546212;90;21606;-50
2022/02/15 10:42:24;;;;;;;;;;;;;;;13.73;36.72;94403.27;1522542;90;21124;-52
2022/02/15 10:45:01;;;;;;;29.02;19.90;;;;;;;13.78;36.66;94399.86;1525530;92;20186;-52
2022/02/15 10:47:30;;;;;;;47.83;38.78;;;;;;;13.59;36.54;94399.89;1514283;92;21077;-51
2022/02/15 10:50:03;;;;;;;26.73;21.55;;;;;;;13.39;36.97;94394.20;1514503;92;21220;-52
2022/02/15 10:52:31;;;;;;;22.27;15.90;;;;;;;13.56;36.58;94397.45;1513675;91;21195;-53
2022/02/15 10:54:59;;;;;;;17.95;13.15;;;;;;;13.73;35.96;94397.13;1524414;92;21084;-51
2022/02/15 10:57:27;;;;;;;17.95;14.03;;;;;;;13.52;35.83;94394.72;1535316;91;21205;-48
2022/02/15 10:59:54;;;;;;;22.35;17.27;;;;;;;13.02;36.96;94397.09;1539195;91;21966;-48
2022/02/15 11:02:26;;;;;;;23.80;16.97;;;;;;;12.70;37.77;94391.01;1511873;92;21308;-51
2022/02/15 11:04:56;;;;;;;24.90;19.67;;;;;;;12.44;38.05;94391.28;1531711;90;21444;-54
2022/02/15 11:07:27;;;;;;;23.12;15.63;;;;;;;12.64;38.46;94380.44;1511253;93;21714;-48
2022/02/15 11:10:19;;;;;;;25.27;17.12;;;;;;;13.20;37.27;94390.06;1515935;92;21093;-50
2022/02/15 11:12:54;;;;;;;20.52;14.43;;;;;;;13.38;36.76;94385.77;1536410;92;21132;-49
2022/02/15 11:15:33;;;;;;;48.63;23.65;;;;;;;13.60;36.51;94384.83;1521023;92;21136;-48
2022/02/15 11:18:04;;;;;;;34.78;23.90;;;;;;;13.96;35.92;94372.02;1506085;91;21118;-47
2022/02/15 11:20:59;;;;;;;50.45;31.87;;;;;;;13.68;35.70;94376.30;1528657;92;21679;-48
2022/02/15 11:23:29;;;;;;;33.40;21.17;;;;;;;13.09;36.47;94381.57;1529652;92;21108;-49
2022/02/15 11:26:17;;;;;;;25.55;17.15;;;;;;;12.47;37.68;94383.45;1540147;90;21632;-48